createdAt,value
2022-11-24T00:04:44.948Z,77.38
2022-11-24T00:09:48.216Z,78.10
2022-11-24T00:14:51.530Z,77.88
2022-11-24T00:19:54.818Z,78.20
2022-11-24T00:24:58.059Z,78.08
2022-11-24T00:30:04.381Z,78.29
2022-11-24T00:35:09.328Z,78.27
2022-11-24T00:40:13.033Z,78.08
2022-11-24T00:45:17.294Z,78.10
2022-11-24T00:50:21.515Z,78.53
2022-11-24T00:55:24.794Z,79.17
2022-11-24T01:00:28.143Z,79.31
2022-11-24T01:05:31.438Z,79.12
2022-11-24T01:10:35.244Z,78.62
2022-11-24T01:15:38.554Z,78.70
2022-11-24T01:20:42.341Z,78.48
2022-11-24T01:25:45.611Z,78.22
2022-11-24T01:31:01.121Z,79.55
2022-11-24T01:36:05.636Z,78.84
2022-11-24T01:41:20.966Z,79.77
2022-11-24T01:46:42.322Z,79.57
2022-11-24T01:52:04.049Z,79.32
2022-11-24T01:57:18.972Z,79.33
2022-11-24T02:02:22.951Z,79.16
2022-11-24T02:07:27.114Z,79.62
2022-11-24T02:12:32.022Z,79.16
2022-11-24T02:18:08.107Z,78.53
2022-11-24T02:23:29.554Z,79.35
2022-11-24T02:28:33.297Z,79.53
2022-11-24T02:33:37.304Z,80.20
2022-11-24T02:38:40.872Z,80.10
2022-11-24T02:43:50.186Z,80.84
2022-11-24T02:48:53.613Z,79.45
2022-11-24T02:53:57.737Z,79.52
2022-11-24T02:59:00.983Z,79.67
2022-11-24T03:04:04.390Z,80.10
2022-11-24T03:09:07.742Z,80.06
2022-11-24T03:14:11.123Z,80.12
2022-11-24T03:19:14.448Z,80.40
2022-11-24T03:24:17.758Z,80.00
2022-11-24T03:29:21.207Z,79.89
2022-11-24T03:34:24.670Z,80.40
2022-11-24T03:39:29.309Z,80.08
2022-11-24T03:44:33.645Z,80.12
2022-11-24T03:49:37.377Z,79.76
2022-11-24T03:54:40.712Z,80.68
2022-11-24T03:59:43.965Z,80.74
2022-11-24T04:04:50.927Z,79.92
2022-11-24T04:09:54.210Z,80.21
2022-11-24T04:14:57.388Z,81.15
2022-11-24T04:20:03.807Z,81.01
2022-11-24T04:25:08.726Z,80.26
2022-11-24T04:30:12.196Z,80.48
2022-11-24T04:35:15.711Z,80.12
2022-11-24T04:40:20.059Z,80.61
2022-11-24T04:45:24.305Z,80.78
2022-11-24T04:50:33.935Z,80.58
2022-11-24T04:55:39.859Z,80.75
2022-11-24T05:00:43.116Z,80.44
2022-11-24T05:05:46.431Z,79.72
2022-11-24T05:10:49.607Z,80.27
2022-11-24T05:15:52.855Z,79.90
2022-11-24T05:20:56.484Z,79.22
2022-11-24T05:26:02.437Z,80.08
2022-11-24T05:31:05.966Z,79.73
2022-11-24T05:36:29.829Z,79.29
2022-11-24T05:41:33.047Z,79.09
2022-11-24T05:46:36.296Z,79.55
2022-11-24T05:51:42.584Z,79.14
2022-11-24T05:56:45.834Z,80.13
2022-11-24T06:01:49.142Z,80.42
2022-11-24T06:06:53.041Z,80.46
2022-11-24T06:11:56.438Z,80.27
2022-11-24T06:17:01.878Z,80.93
2022-11-24T06:22:05.278Z,81.41
2022-11-24T06:27:08.653Z,81.01
2022-11-24T06:32:11.814Z,80.47
2022-11-24T06:37:17.842Z,80.51
2022-11-24T06:42:21.875Z,80.16
2022-11-24T06:47:25.112Z,79.83
2022-11-24T06:52:28.377Z,79.94
2022-11-24T06:57:33.000Z,79.94
2022-11-24T07:02:41.084Z,79.07
2022-11-24T07:07:51.075Z,79.27
2022-11-24T07:13:15.266Z,78.92
2022-11-24T07:18:19.490Z,79.04
2022-11-24T07:23:29.428Z,79.02
2022-11-24T07:28:38.031Z,77.55
2022-11-24T07:39:23.121Z,78.75
2022-11-24T07:45:08.964Z,78.40
2022-11-24T07:50:32.051Z,78.43
2022-11-24T07:56:12.909Z,79.06
2022-11-24T08:02:14.873Z,77.85
2022-11-24T08:07:50.235Z,77.41
2022-11-24T08:13:17.033Z,78.25
2022-11-24T08:24:20.317Z,77.85
2022-11-24T08:29:33.645Z,77.83
2022-11-24T08:34:52.203Z,78.03
2022-11-24T08:40:03.370Z,77.04
2022-11-24T08:45:20.393Z,77.86
2022-11-24T08:50:25.873Z,77.18
2022-11-24T08:55:29.339Z,77.37
2022-11-24T09:01:00.167Z,76.03
2022-11-24T09:06:03.598Z,77.40
2022-11-24T09:17:05.698Z,76.32
2022-11-24T09:23:18.608Z,76.89
2022-11-24T09:28:21.825Z,76.63
2022-11-24T09:33:38.800Z,76.79
2022-11-24T09:38:47.293Z,77.10
2022-11-24T09:45:02.712Z,76.93
2022-11-24T09:51:06.255Z,76.95
2022-11-24T09:56:53.992Z,77.69
2022-11-24T10:02:06.099Z,76.66
2022-11-24T10:07:09.823Z,78.07
2022-11-24T10:13:00.583Z,78.07
2022-11-24T10:18:16.700Z,77.79
2022-11-24T10:23:59.750Z,77.88
2022-11-24T10:29:23.801Z,78.32
2022-11-24T10:34:57.924Z,78.27
2022-11-24T10:52:36.984Z,78.35
2022-11-24T10:58:19.961Z,78.18
2022-11-24T11:04:07.294Z,78.36
2022-11-24T11:09:36.671Z,78.19
2022-11-24T11:15:52.469Z,78.32
2022-11-24T11:21:07.342Z,77.09
2022-11-24T11:27:04.105Z,77.62
2022-11-24T11:50:32.101Z,78.56
2022-11-24T11:56:37.552Z,78.67
2022-11-24T12:02:01.070Z,78.95
2022-11-24T12:07:46.538Z,79.13
2022-11-24T12:13:18.831Z,78.50
2022-11-24T12:18:57.585Z,78.51
2022-11-24T12:24:59.100Z,78.06
2022-11-24T12:44:24.102Z,79.34
2022-11-24T12:49:47.373Z,79.35
2022-11-24T13:01:02.772Z,78.62
2022-11-24T13:06:17.369Z,79.14
2022-11-24T13:11:23.652Z,80.48
2022-11-24T13:17:06.105Z,80.05
2022-11-24T13:22:19.062Z,79.81
2022-11-24T13:27:54.344Z,79.97
2022-11-24T13:33:37.631Z,79.61
2022-11-24T13:38:55.802Z,80.42
2022-11-24T13:44:16.765Z,80.44
2022-11-24T13:49:21.223Z,80.24
2022-11-24T13:54:27.764Z,79.79
2022-11-24T13:59:35.645Z,79.67
2022-11-24T14:04:43.564Z,80.11
2022-11-24T14:09:50.706Z,80.03
2022-11-24T14:15:25.021Z,79.85
2022-11-24T14:20:29.413Z,80.53
2022-11-24T14:25:33.059Z,80.02
2022-11-24T14:30:36.507Z,80.35
2022-11-24T14:35:51.348Z,80.48
2022-11-24T14:40:55.937Z,80.15
2022-11-24T14:46:04.021Z,79.97
2022-11-24T14:51:16.106Z,79.77
2022-11-24T14:56:24.289Z,80.57
2022-11-24T15:01:27.504Z,80.28
2022-11-24T15:06:30.785Z,80.74
2022-11-24T15:11:35.459Z,80.22
2022-11-24T15:16:40.474Z,79.55
2022-11-24T15:21:43.758Z,80.29
2022-11-24T15:26:46.995Z,80.56
2022-11-24T15:37:16.806Z,80.88
2022-11-24T15:42:20.038Z,80.19
2022-11-24T15:47:23.251Z,80.76
2022-11-24T15:52:26.542Z,80.82
2022-11-24T16:02:50.841Z,80.56
2022-11-24T16:07:54.141Z,80.37
2022-11-24T16:12:57.419Z,80.93
2022-11-24T16:18:00.859Z,80.40
2022-11-24T16:23:04.669Z,81.00
2022-11-24T16:28:08.083Z,80.68
2022-11-24T16:33:11.659Z,81.61
2022-11-24T16:38:21.286Z,81.95
2022-11-24T16:43:24.936Z,81.97
2022-11-24T16:48:28.156Z,81.80
2022-11-24T16:53:31.415Z,82.38
2022-11-24T16:58:38.267Z,82.47
2022-11-24T17:03:44.163Z,81.97
2022-11-24T17:08:49.007Z,81.64
2022-11-24T17:13:52.711Z,82.37
2022-11-24T17:18:56.609Z,81.83
2022-11-24T17:24:02.050Z,82.09
2022-11-24T17:29:05.389Z,83.37
2022-11-24T17:34:11.092Z,83.18
2022-11-24T17:39:14.434Z,82.76
2022-11-24T17:44:17.784Z,83.06
2022-11-24T17:49:21.560Z,83.48
2022-11-24T17:54:45.221Z,82.25
2022-11-24T17:59:48.127Z,82.19
2022-11-24T18:04:51.318Z,82.79
2022-11-24T18:09:54.540Z,82.73
2022-11-24T18:14:57.779Z,83.96
2022-11-24T18:20:01.157Z,83.79
2022-11-24T18:25:06.822Z,84.61
2022-11-24T18:30:10.605Z,84.70
2022-11-24T18:35:13.868Z,84.04
2022-11-24T18:40:17.004Z,84.76
2022-11-24T18:45:20.123Z,84.14
2022-11-24T18:50:23.329Z,83.02
2022-11-24T18:55:29.462Z,84.49
2022-11-24T19:00:34.546Z,83.47
2022-11-24T19:05:37.772Z,83.99
2022-11-24T19:10:41.183Z,84.88
2022-11-24T19:15:44.384Z,85.33
2022-11-24T19:20:49.718Z,86.02
2022-11-24T19:25:53.012Z,84.88
2022-11-24T19:31:10.866Z,84.90
2022-11-24T19:36:17.207Z,84.15
2022-11-24T19:41:23.008Z,83.98
2022-11-24T19:46:29.894Z,84.67
2022-11-24T19:51:35.283Z,85.57
2022-11-24T19:56:39.910Z,85.51
2022-11-24T20:01:43.365Z,85.67
2022-11-24T20:06:48.117Z,85.53
2022-11-24T20:11:52.331Z,85.92
2022-11-24T20:16:55.560Z,84.78
2022-11-24T20:21:58.982Z,85.34
2022-11-24T20:27:03.313Z,85.88
2022-11-24T20:32:06.540Z,85.88
2022-11-24T20:37:13.626Z,85.67
2022-11-24T20:42:16.827Z,86.49
2022-11-24T20:47:20.375Z,85.97
2022-11-24T20:52:23.702Z,85.96
2022-11-24T20:57:26.824Z,85.90
2022-11-24T21:02:30.075Z,86.60
2022-11-24T21:07:33.488Z,87.09
2022-11-24T21:12:36.723Z,86.35
2022-11-24T21:17:39.993Z,85.89
2022-11-24T21:22:43.168Z,86.17
2022-11-24T21:27:46.332Z,86.43
2022-11-24T21:32:49.544Z,86.31
2022-11-24T21:37:52.729Z,86.12
2022-11-24T21:42:59.718Z,87.01
2022-11-24T21:48:02.983Z,87.93
2022-11-24T21:53:06.250Z,87.10
2022-11-24T21:58:09.664Z,87.65
2022-11-24T22:03:13.169Z,87.03
2022-11-24T22:08:16.406Z,86.47
2022-11-24T22:13:22.630Z,86.93
2022-11-24T22:18:27.347Z,87.04
2022-11-24T22:23:31.665Z,87.26
2022-11-24T22:28:35.872Z,87.32
2022-11-24T22:33:39.574Z,87.80
2022-11-24T22:38:43.288Z,86.98
2022-11-24T22:43:46.922Z,87.72
2022-11-24T22:48:53.231Z,87.48
2022-11-24T22:53:58.466Z,88.46
2022-11-24T22:59:02.881Z,88.33
2022-11-24T23:04:06.284Z,87.82
2022-11-24T23:09:11.901Z,87.97
2022-11-24T23:14:15.894Z,88.09
2022-11-24T23:19:19.136Z,87.96
2022-11-24T23:24:22.951Z,88.32
2022-11-24T23:29:26.145Z,88.36
2022-11-24T23:34:29.324Z,88.66
2022-11-24T23:39:32.478Z,88.88
2022-11-24T23:44:35.790Z,89.00
2022-11-24T23:49:39.155Z,88.20
2022-11-24T23:54:42.390Z,88.11
2022-11-24T23:59:45.719Z,87.15
